Livingston, Iowa
Current Conditions -  °F | °C
As of 10:55 PM on Monday 20 Oct 2014 (Local Time) from KTVK Reporting Station
Clear Clear  
Wind Chill: 44°   Ceiling: Unl
Heat Index: 46°   Visibility: 10mi
Dew Point: 41°   Wind: 5mph
Humidity: 81%   Direction: 280°W
Pressure: 30.06"   Gusts: NA
Location:  40.6341°N, 92.9239°W
Report Text: KTVK 210355Z AUTO 28004KT 10SM CLR 08/05 A3006 RMK AO2
Loading
Personal Weather Stations






























Interactive Weather Map
Tropical Storm Tracking
New forecast layout! Learn more

10-Day Weather Forecast

Advertisements
Track Severe Weather on mobile